Walsenburg, Colorado
Current Conditions -  °F | °C
As of 3:45 AM on Monday 20 Oct 2014 (Local Time) from KVTP Reporting Station
Clear Clear  
Wind Chill:   Ceiling: Unl
Heat Index:   Visibility: 10mi
Dew Point: -1°   Wind: 3mph
Humidity: 70%   Direction: 70°ENE
Pressure: 30.39"   Gusts: NA
Location:  37.62°N, 104.78°W
Report Text: KVTP 200945Z AUTO 07003KT 10SM CLR 04/M01 A3039 RMK AO2
Loading
Personal Weather Stations






























Interactive Weather Map
Tropical Storm Tracking
New forecast layout! Learn more

10-Day Weather Forecast

Advertisements
Track Severe Weather on mobile